sensor_id;sensor_type;location;lat;lon;timestamp;pressure;altitude;pressure_sealevel;temperature;humidity
22018;BME280;11173;51.050;7.108;2023-06-01T00:06:49;99982.25;;;14.47;53.38
22018;BME280;11173;51.050;7.108;2023-06-01T00:16:49;99971.66;;;14.22;55.64
22018;BME280;11173;51.050;7.108;2023-06-01T00:26:51;99968.25;;;14.15;54.74
22018;BME280;11173;51.050;7.108;2023-06-01T00:36:52;99973.22;;;13.90;56.77
22018;BME280;11173;51.050;7.108;2023-06-01T00:46:52;99970.94;;;13.85;57.21
22018;BME280;11173;51.050;7.108;2023-06-01T00:56:53;99971.69;;;13.69;56.92
22018;BME280;11173;51.050;7.108;2023-06-01T01:06:57;99973.75;;;13.65;58.29
22018;BME280;11173;51.050;7.108;2023-06-01T01:17:15;99961.13;;;13.57;58.16
22018;BME280;11173;51.050;7.108;2023-06-01T01:27:30;99965.41;;;13.45;57.99
22018;BME280;11173;51.050;7.108;2023-06-01T01:37:50;99962.34;;;13.40;57.98
22018;BME280;11173;51.050;7.108;2023-06-01T01:47:58;99964.69;;;13.21;58.40
22018;BME280;11173;51.050;7.108;2023-06-01T01:58:03;99963.69;;;13.11;57.44
22018;BME280;11173;51.050;7.108;2023-06-01T02:08:04;99965.16;;;13.00;57.87
22018;BME280;11173;51.050;7.108;2023-06-01T02:18:05;99963.69;;;12.91;57.58
22018;BME280;11173;51.050;7.108;2023-06-01T02:28:07;99966.22;;;12.86;55.46
22018;BME280;11173;51.050;7.108;2023-06-01T02:38:07;99959.25;;;12.74;54.86
22018;BME280;11173;51.050;7.108;2023-06-01T02:48:08;99963.75;;;12.44;53.00
22018;BME280;11173;51.050;7.108;2023-06-01T02:58:08;99962.91;;;12.24;52.98
22018;BME280;11173;51.050;7.108;2023-06-01T03:08:15;99967.25;;;12.01;53.10
22018;BME280;11173;51.050;7.108;2023-06-01T03:18:16;99960.41;;;11.79;53.11
22018;BME280;11173;51.050;7.108;2023-06-01T03:28:17;99964.53;;;11.70;53.19
22018;BME280;11173;51.050;7.108;2023-06-01T03:38:17;99973.84;;;11.60;54.09
22018;BME280;11173;51.050;7.108;2023-06-01T03:48:17;99974.25;;;11.55;55.43
22018;BME280;11173;51.050;7.108;2023-06-01T03:58:18;99975.94;;;11.49;53.63
22018;BME280;11173;51.050;7.108;2023-06-01T04:08:21;99984.31;;;11.49;54.51
22018;BME280;11173;51.050;7.108;2023-06-01T04:18:22;99981.72;;;11.65;55.26
22018;BME280;11173;51.050;7.108;2023-06-01T04:28:22;99988.22;;;12.84;55.45
22018;BME280;11173;51.050;7.108;2023-06-01T04:38:24;99998.38;;;14.27;53.80
22018;BME280;11173;51.050;7.108;2023-06-01T04:48:25;99997.25;;;15.45;52.55
22018;BME280;11173;51.050;7.108;2023-06-01T04:58:25;99990.91;;;16.34;51.01
22018;BME280;11173;51.050;7.108;2023-06-01T05:08:25;99977.09;;;16.97;49.72
22018;BME280;11173;51.050;7.108;2023-06-01T05:18:26;99998.06;;;17.40;49.09
22018;BME280;11173;51.050;7.108;2023-06-01T05:28:26;99996.50;;;17.61;49.13
22018;BME280;11173;51.050;7.108;2023-06-01T05:38:26;99998.72;;;17.97;48.85
22018;BME280;11173;51.050;7.108;2023-06-01T05:48:27;100004.31;;;18.38;48.15
22018;BME280;11173;51.050;7.108;2023-06-01T05:58:27;99999.53;;;18.47;48.51
22018;BME280;11173;51.050;7.108;2023-06-01T06:08:28;100010.53;;;18.92;47.73
22018;BME280;11173;51.050;7.108;2023-06-01T06:18:29;100003.63;;;19.20;47.74
22018;BME280;11173;51.050;7.108;2023-06-01T06:28:29;100014.94;;;19.39;47.29
22018;BME280;11173;51.050;7.108;2023-06-01T06:38:30;100020.84;;;19.59;46.67
22018;BME280;11173;51.050;7.108;2023-06-01T06:48:31;100024.63;;;19.56;46.81
22018;BME280;11173;51.050;7.108;2023-06-01T06:58:31;100020.91;;;19.32;46.28
22018;BME280;11173;51.050;7.108;2023-06-01T07:08:32;100030.25;;;18.64;46.01
22018;BME280;11173;51.050;7.108;2023-06-01T07:18:34;100023.66;;;17.55;46.49
22018;BME280;11173;51.050;7.108;2023-06-01T07:28:35;100024.00;;;16.65;48.24
22018;BME280;11173;51.050;7.108;2023-06-01T07:38:35;100023.41;;;16.22;49.01
22018;BME280;11173;51.050;7.108;2023-06-01T07:48:36;100027.13;;;16.06;50.55
22018;BME280;11173;51.050;7.108;2023-06-01T07:58:38;100036.78;;;15.93;51.18
22018;BME280;11173;51.050;7.108;2023-06-01T08:08:39;100047.50;;;15.68;51.67
22018;BME280;11173;51.050;7.108;2023-06-01T08:18:40;100040.88;;;15.62;51.05
22018;BME280;11173;51.050;7.108;2023-06-01T08:28:41;100039.69;;;15.47;50.39
22018;BME280;11173;51.050;7.108;2023-06-01T08:38:42;100027.34;;;15.15;51.36
22018;BME280;11173;51.050;7.108;2023-06-01T08:48:43;100037.66;;;15.05;50.42
22018;BME280;11173;51.050;7.108;2023-06-01T08:58:44;100037.59;;;14.76;51.78
22018;BME280;11173;51.050;7.108;2023-06-01T09:08:45;100030.25;;;14.66;52.08
22018;BME280;11173;51.050;7.108;2023-06-01T09:18:54;100011.31;;;14.70;53.11
22018;BME280;11173;51.050;7.108;2023-06-01T09:28:58;100004.97;;;14.99;51.33
22018;BME280;11173;51.050;7.108;2023-06-01T09:39:04;100004.13;;;15.15;50.15
22018;BME280;11173;51.050;7.108;2023-06-01T09:49:05;99995.72;;;15.15;48.74
22018;BME280;11173;51.050;7.108;2023-06-01T09:59:07;99981.84;;;15.37;49.04
22018;BME280;11173;51.050;7.108;2023-06-01T10:09:11;99978.97;;;15.66;49.03
22018;BME280;11173;51.050;7.108;2023-06-01T10:19:14;99973.28;;;15.82;48.59
22018;BME280;11173;51.050;7.108;2023-06-01T10:29:17;99964.06;;;16.07;47.88
22018;BME280;11173;51.050;7.108;2023-06-01T11:00:24;99954.03;;;17.02;47.06
22018;BME280;11173;51.050;7.108;2023-06-01T11:20:48;99949.94;;;17.47;46.58
22018;BME280;11173;51.050;7.108;2023-06-01T11:30:49;99936.75;;;17.66;46.09
22018;BME280;11173;51.050;7.108;2023-06-01T11:41:00;99923.84;;;17.87;45.73
22018;BME280;11173;51.050;7.108;2023-06-01T11:51:02;99924.19;;;18.07;44.81
22018;BME280;11173;51.050;7.108;2023-06-01T12:01:02;99918.63;;;18.35;43.98
22018;BME280;11173;51.050;7.108;2023-06-01T12:11:04;99920.81;;;18.40;44.04
22018;BME280;11173;51.050;7.108;2023-06-01T12:21:13;99921.78;;;18.56;43.33
22018;BME280;11173;51.050;7.108;2023-06-01T12:31:15;99916.91;;;18.56;43.27
22018;BME280;11173;51.050;7.108;2023-06-01T12:41:15;99907.97;;;18.76;42.41
22018;BME280;11173;51.050;7.108;2023-06-01T12:51:19;99899.53;;;18.85;41.81
22018;BME280;11173;51.050;7.108;2023-06-01T13:01:20;99897.31;;;18.99;40.70
22018;BME280;11173;51.050;7.108;2023-06-01T13:11:21;99901.19;;;19.29;40.86
22018;BME280;11173;51.050;7.108;2023-06-01T13:21:23;99885.94;;;19.26;39.82
22018;BME280;11173;51.050;7.108;2023-06-01T13:31:23;99870.03;;;19.47;40.17
22018;BME280;11173;51.050;7.108;2023-06-01T13:41:24;99886.53;;;19.49;39.33
22018;BME280;11173;51.050;7.108;2023-06-01T13:51:24;99866.38;;;19.56;39.85
22018;BME280;11173;51.050;7.108;2023-06-01T14:01:25;99867.56;;;19.74;39.78
22018;BME280;11173;51.050;7.108;2023-06-01T14:11:25;99848.50;;;19.83;37.95
22018;BME280;11173;51.050;7.108;2023-06-01T14:21:27;99845.34;;;19.91;39.44
22018;BME280;11173;51.050;7.108;2023-06-01T14:31:29;99836.00;;;19.99;39.02
22018;BME280;11173;51.050;7.108;2023-06-01T14:41:29;99820.91;;;20.02;39.86
22018;BME280;11173;51.050;7.108;2023-06-01T14:51:30;99827.97;;;20.07;38.71
22018;BME280;11173;51.050;7.108;2023-06-01T15:01:33;99810.19;;;20.06;38.28
22018;BME280;11173;51.050;7.108;2023-06-01T15:11:33;99810.84;;;20.01;39.31
22018;BME280;11173;51.050;7.108;2023-06-01T15:21:34;99805.75;;;20.15;39.27
22018;BME280;11173;51.050;7.108;2023-06-01T15:31:34;99801.41;;;20.43;38.34
22018;BME280;11173;51.050;7.108;2023-06-01T15:41:35;99798.31;;;20.86;39.16
22018;BME280;11173;51.050;7.108;2023-06-01T15:51:35;99804.44;;;21.14;37.85
22018;BME280;11173;51.050;7.108;2023-06-01T16:01:36;99791.00;;;20.94;37.19
22018;BME280;11173;51.050;7.108;2023-06-01T16:11:37;99794.09;;;20.52;37.20
22018;BME280;11173;51.050;7.108;2023-06-01T16:21:37;99795.63;;;20.23;38.80
22018;BME280;11173;51.050;7.108;2023-06-01T16:31:37;99789.69;;;19.97;38.83
22018;BME280;11173;51.050;7.108;2023-06-01T16:41:38;99783.41;;;19.68;38.75
22018;BME280;11173;51.050;7.108;2023-06-01T16:51:38;99775.00;;;19.35;39.66
22018;BME280;11173;51.050;7.108;2023-06-01T17:01:39;99772.19;;;18.83;41.00
22018;BME280;11173;51.050;7.108;2023-06-01T17:11:39;99771.28;;;18.68;40.45
22018;BME280;11173;51.050;7.108;2023-06-01T17:21:40;99760.47;;;18.66;41.33
22018;BME280;11173;51.050;7.108;2023-06-01T17:31:40;99751.72;;;19.64;41.97
22018;BME280;11173;51.050;7.108;2023-06-01T17:41:40;99747.59;;;20.82;39.54
22018;BME280;11173;51.050;7.108;2023-06-01T17:51:43;99750.31;;;21.62;38.80
22018;BME280;11173;51.050;7.108;2023-06-01T18:01:43;99753.75;;;22.13;37.97
22018;BME280;11173;51.050;7.108;2023-06-01T18:11:43;99751.09;;;22.30;35.26
22018;BME280;11173;51.050;7.108;2023-06-01T18:21:44;99760.75;;;22.18;36.46
22018;BME280;11173;51.050;7.108;2023-06-01T18:31:44;99742.00;;;21.79;36.36
22018;BME280;11173;51.050;7.108;2023-06-01T18:41:45;99742.56;;;21.42;35.92
22018;BME280;11173;51.050;7.108;2023-06-01T18:51:45;99735.84;;;20.90;37.47
22018;BME280;11173;51.050;7.108;2023-06-01T19:01:46;99731.88;;;19.74;38.63
22018;BME280;11173;51.050;7.108;2023-06-01T19:11:46;99730.28;;;18.30;39.67
22018;BME280;11173;51.050;7.108;2023-06-01T19:21:47;99743.91;;;17.08;42.96
22018;BME280;11173;51.050;7.108;2023-06-01T19:31:47;99768.44;;;15.88;48.58
22018;BME280;11173;51.050;7.108;2023-06-01T19:41:48;99771.66;;;15.13;51.59
22018;BME280;11173;51.050;7.108;2023-06-01T19:51:48;99788.69;;;14.67;52.20
22018;BME280;11173;51.050;7.108;2023-06-01T20:01:49;99805.72;;;14.31;50.21
22018;BME280;11173;51.050;7.108;2023-06-01T20:11:52;99817.72;;;13.86;49.63
22018;BME280;11173;51.050;7.108;2023-06-01T20:21:56;99824.94;;;13.34;51.94
22018;BME280;11173;51.050;7.108;2023-06-01T20:32:01;99828.13;;;13.00;54.36
22018;BME280;11173;51.050;7.108;2023-06-01T20:42:02;99808.41;;;12.67;54.19
22018;BME280;11173;51.050;7.108;2023-06-01T20:52:08;99809.28;;;12.44;55.21
22018;BME280;11173;51.050;7.108;2023-06-01T21:02:09;99802.59;;;12.18;55.25
22018;BME280;11173;51.050;7.108;2023-06-01T21:12:12;99809.06;;;11.91;56.63
22018;BME280;11173;51.050;7.108;2023-06-01T21:22:12;99811.13;;;11.87;57.28
22018;BME280;11173;51.050;7.108;2023-06-01T21:32:13;99815.53;;;11.64;52.19
22018;BME280;11173;51.050;7.108;2023-06-01T21:42:13;99826.53;;;11.48;52.75
22018;BME280;11173;51.050;7.108;2023-06-01T21:52:13;99829.72;;;11.19;52.42
22018;BME280;11173;51.050;7.108;2023-06-01T22:02:14;99832.31;;;11.06;52.50
22018;BME280;11173;51.050;7.108;2023-06-01T22:12:14;99838.28;;;11.05;53.95
22018;BME280;11173;51.050;7.108;2023-06-01T22:22:16;99844.31;;;11.00;54.18
22018;BME280;11173;51.050;7.108;2023-06-01T22:32:16;99848.03;;;10.89;57.83
22018;BME280;11173;51.050;7.108;2023-06-01T22:42:17;99847.50;;;10.71;57.58
22018;BME280;11173;51.050;7.108;2023-06-01T22:52:21;99848.44;;;10.57;56.94
22018;BME280;11173;51.050;7.108;2023-06-01T23:02:21;99854.53;;;10.48;61.73
22018;BME280;11173;51.050;7.108;2023-06-01T23:12:21;99863.72;;;10.42;59.28
22018;BME280;11173;51.050;7.108;2023-06-01T23:22:22;99859.72;;;10.46;59.88
22018;BME280;11173;51.050;7.108;2023-06-01T23:32:24;99860.13;;;10.45;57.98
22018;BME280;11173;51.050;7.108;2023-06-01T23:42:24;99863.81;;;10.34;59.42
22018;BME280;11173;51.050;7.108;2023-06-01T23:52:25;99870.63;;;10.30;56.64
